Time;durP1;ratioP1;P1;durP2;ratioP2;P2;SDS_P1;SDS_P2;PMS_P1;PMS_P2;Temp;Humidity;BMP_temperature;BMP_pressure;BME280_temperature;BME280_humidity;BME280_pressure;Samples;Min_cycle;Max_cycle;Signal;HPM_P1;HPM_P2
2022/03/25 00:02:15;;;;;;;149.93;73.60;;;4.60;99.90;;;;;;4880599;29;20064;-87
2022/03/25 00:04:40;;;;;;;148.57;75.30;;;4.50;99.90;;;;;;4865653;29;20052;-87
2022/03/25 00:07:07;;;;;;;156.85;78.15;;;4.50;99.90;;;;;;4881528;29;20059;-87
2022/03/25 00:09:33;;;;;;;166.23;77.25;;;4.40;99.90;;;;;;4881032;29;20100;-87
2022/03/25 00:11:59;;;;;;;153.15;75.93;;;4.30;99.90;;;;;;4881131;29;20053;-87
2022/03/25 00:14:25;;;;;;;164.38;78.70;;;4.20;99.90;;;;;;4897652;29;20071;-88
2022/03/25 00:16:51;;;;;;;165.38;79.00;;;4.20;99.90;;;;;;4881201;29;20055;-87
2022/03/25 00:19:16;;;;;;;166.82;80.60;;;4.10;99.90;;;;;;4864997;29;20040;-87
2022/03/25 00:21:42;;;;;;;154.77;74.80;;;4.10;99.90;;;;;;4880533;29;20064;-87
2022/03/25 00:24:08;;;;;;;164.82;80.32;;;4.00;99.90;;;;;;4880805;29;20139;-87
2022/03/25 00:26:34;;;;;;;156.05;76.63;;;3.90;99.90;;;;;;4881066;29;20083;-87
2022/03/25 00:29:00;;;;;;;155.73;73.55;;;3.90;99.90;;;;;;4865491;29;20044;-88
2022/03/25 00:31:26;;;;;;;160.95;78.05;;;3.80;99.90;;;;;;4864894;29;20087;-87
2022/03/25 00:33:52;;;;;;;175.55;79.47;;;3.80;99.90;;;;;;4880648;29;20058;-87
2022/03/25 00:36:18;;;;;;;164.73;78.38;;;3.80;99.90;;;;;;4881038;29;20100;-87
2022/03/25 00:38:45;;;;;;;165.95;77.75;;;3.80;99.90;;;;;;4880734;29;20041;-87
2022/03/25 00:41:12;;;;;;;178.57;81.60;;;3.70;99.90;;;;;;4897490;29;20041;-87
2022/03/25 00:43:45;;;;;;;166.88;77.13;;;3.60;99.90;;;;;;4880817;29;20522;-87
2022/03/25 00:46:12;;;;;;;175.60;77.82;;;3.60;99.90;;;;;;4880664;29;20074;-87
2022/03/25 00:48:38;;;;;;;167.63;77.78;;;3.60;99.90;;;;;;4880404;29;20080;-87
2022/03/25 00:51:04;;;;;;;161.30;75.90;;;3.50;99.90;;;;;;4880664;29;20068;-87
2022/03/25 00:53:31;;;;;;;173.30;79.05;;;3.50;99.90;;;;;;4897496;29;20048;-87
2022/03/25 00:55:57;;;;;;;182.75;79.60;;;3.40;99.90;;;;;;4880881;29;20049;-87
2022/03/25 00:58:22;;;;;;;184.27;79.70;;;3.40;99.90;;;;;;4880507;29;20063;-87
2022/03/25 01:00:48;;;;;;;183.52;80.75;;;3.30;99.90;;;;;;4864647;29;20116;-87
2022/03/25 01:03:15;;;;;;;186.80;81.10;;;3.30;99.90;;;;;;4880450;29;20048;-88
2022/03/25 01:05:41;;;;;;;194.50;81.30;;;3.50;99.90;;;;;;4880341;29;20052;-87
2022/03/25 01:08:09;;;;;;;197.27;82.47;;;3.30;99.90;;;;;;4880900;29;20507;-87
2022/03/25 01:10:36;;;;;;;193.13;80.03;;;3.30;99.90;;;;;;4868627;29;20052;-87
2022/03/25 01:13:03;;;;;;;210.15;85.97;;;3.30;99.90;;;;;;4884389;29;20140;-87
2022/03/25 01:15:29;;;;;;;219.13;84.55;;;3.30;99.90;;;;;;4883905;29;20545;-87
2022/03/25 01:17:54;;;;;;;187.90;80.47;;;3.30;99.90;;;;;;4900767;29;20176;-87
2022/03/25 01:20:20;;;;;;;207.75;80.53;;;3.30;99.90;;;;;;4883645;29;20128;-87
2022/03/25 01:22:46;;;;;;;199.07;81.25;;;3.30;99.90;;;;;;4883707;29;20459;-87
2022/03/25 01:25:12;;;;;;;190.38;79.20;;;3.30;99.90;;;;;;4868031;29;20057;-87
2022/03/25 01:27:38;;;;;;;187.75;77.18;;;3.30;99.90;;;;;;4883893;29;20510;-87
2022/03/25 01:30:05;;;;;;;162.50;76.78;;;3.30;99.90;;;;;;4884280;29;20088;-87
2022/03/25 01:32:30;;;;;;;198.77;81.65;;;3.40;99.90;;;;;;4884006;29;20048;-88
2022/03/25 01:34:56;;;;;;;172.18;77.15;;;3.40;99.90;;;;;;4867507;29;20052;-88
2022/03/25 01:37:23;;;;;;;178.38;74.97;;;3.30;99.90;;;;;;4868618;29;20510;-87
2022/03/25 01:39:49;;;;;;;174.30;77.05;;;3.30;99.90;;;;;;4868165;29;20519;-87
2022/03/25 01:42:15;;;;;;;169.20;75.75;;;3.30;99.90;;;;;;4883165;29;20499;-87
2022/03/25 01:44:41;;;;;;;178.95;77.07;;;3.20;99.90;;;;;;4868118;29;20056;-87
2022/03/25 01:47:08;;;;;;;184.18;77.63;;;3.20;99.90;;;;;;4883687;29;20044;-87
2022/03/25 01:49:35;;;;;;;193.95;77.80;;;3.10;99.90;;;;;;4883398;29;20067;-87
2022/03/25 01:52:02;;;;;;;183.38;77.43;;;3.10;99.90;;;;;;4900269;29;20100;-89
2022/03/25 01:54:32;;;;;;;191.65;79.15;;;3.10;99.90;;;;;;4883299;29;20503;-87
2022/03/25 01:57:05;;;;;;;186.50;75.18;;;3.00;99.90;;;;;;4883494;29;20482;-87
2022/03/25 01:59:31;;;;;;;184.10;76.63;;;3.20;99.90;;;;;;4883245;29;20036;-87
2022/03/25 02:01:58;;;;;;;187.13;77.35;;;3.10;99.90;;;;;;4899870;29;20044;-88
2022/03/25 02:04:25;;;;;;;204.50;79.15;;;3.10;99.90;;;;;;4883473;29;20144;-87
2022/03/25 02:06:52;;;;;;;192.82;76.78;;;3.10;99.90;;;;;;4883291;29;20049;-87
2022/03/25 02:09:17;;;;;;;210.77;80.45;;;3.00;99.90;;;;;;4883188;29;20413;-87
2022/03/25 02:11:43;;;;;;;198.38;79.15;;;3.00;99.90;;;;;;4883134;29;20044;-87
2022/03/25 02:14:09;;;;;;;197.73;78.90;;;3.00;99.90;;;;;;4899741;29;20059;-87
2022/03/25 02:16:48;;;;;;;197.80;79.20;;;2.90;99.90;;;;;;4883154;29;20081;-87
2022/03/25 02:19:18;;;;;;;202.20;77.97;;;3.00;99.90;;;;;;4899228;29;20682;-87
2022/03/25 02:21:45;;;;;;;188.23;75.03;;;2.90;99.90;;;;;;4882447;29;20065;-87
2022/03/25 02:24:12;;;;;;;198.30;76.40;;;2.90;99.90;;;;;;4883065;29;20491;-87
2022/03/25 02:26:39;;;;;;;188.32;76.18;;;2.80;99.90;;;;;;4867309;29;20040;-87
2022/03/25 02:29:07;;;;;;;198.00;77.45;;;2.80;99.90;;;;;;4899451;29;20052;-88
2022/03/25 02:31:33;;;;;;;181.57;77.63;;;2.80;99.90;;;;;;4882039;29;20404;-86
2022/03/25 02:34:07;;;;;;;214.27;78.43;;;2.70;99.90;;;;;;4882747;29;20541;-88
2022/03/25 02:36:43;;;;;;;201.90;80.07;;;2.70;99.90;;;;;;4882588;29;20574;-86
2022/03/25 02:39:11;;;;;;;209.32;81.85;;;2.80;99.90;;;;;;4899165;29;20048;-86
2022/03/25 02:41:37;;;;;;;193.40;79.03;;;2.70;99.90;;;;;;4899380;29;20059;-87
2022/03/25 02:44:04;;;;;;;188.30;75.47;;;2.70;99.90;;;;;;4882260;29;20147;-88
2022/03/25 02:46:30;;;;;;;205.20;77.55;;;2.70;99.90;;;;;;4882413;29;20435;-87
2022/03/25 02:48:56;;;;;;;192.07;78.57;;;2.80;99.90;;;;;;4882315;29;20059;-86
2022/03/25 02:51:22;;;;;;;222.48;79.60;;;2.80;99.90;;;;;;4882516;29;20048;-87
2022/03/25 02:53:47;;;;;;;206.95;78.57;;;2.80;99.90;;;;;;4882572;29;20071;-86
2022/03/25 02:56:13;;;;;;;166.75;72.35;;;2.80;99.90;;;;;;4882424;29;20052;-87
2022/03/25 02:58:39;;;;;;;204.27;75.97;;;2.80;99.90;;;;;;4882323;29;20045;-87
2022/03/25 03:01:06;;;;;;;213.65;77.45;;;2.70;99.90;;;;;;4898765;29;20051;-87
2022/03/25 03:03:33;;;;;;;229.73;80.32;;;2.70;99.90;;;;;;4882435;29;20108;-87
2022/03/25 03:05:59;;;;;;;192.93;76.85;;;2.60;99.90;;;;;;4882353;29;20044;-87
2022/03/25 03:08:25;;;;;;;178.15;73.22;;;2.80;99.90;;;;;;4881994;29;20056;-87
2022/03/25 03:10:51;;;;;;;165.40;73.85;;;2.60;99.90;;;;;;4882316;29;20415;-87
2022/03/25 03:13:17;;;;;;;216.80;79.55;;;2.60;99.90;;;;;;4882196;29;20049;-87
2022/03/25 03:15:43;;;;;;;213.38;77.43;;;2.50;99.90;;;;;;4881759;29;20048;-86
2022/03/25 03:18:09;;;;;;;211.68;77.47;;;2.50;99.90;;;;;;4881976;29;20054;-86
2022/03/25 03:20:35;;;;;;;218.88;75.30;;;2.40;99.90;;;;;;4865884;29;20070;-86
2022/03/25 03:23:00;;;;;;;197.85;77.07;;;2.40;99.90;;;;;;4881335;29;20144;-87
2022/03/25 03:25:26;;;;;;;205.65;76.38;;;2.40;99.90;;;;;;4881843;29;20063;-86
2022/03/25 03:27:53;;;;;;;209.93;76.03;;;2.40;99.90;;;;;;4881912;29;20056;-86
2022/03/25 03:30:19;;;;;;;191.55;73.53;;;2.30;99.90;;;;;;4881543;29;20097;-87
2022/03/25 03:32:45;;;;;;;229.77;77.68;;;2.30;99.90;;;;;;4880696;29;20060;-87
2022/03/25 03:35:11;;;;;;;226.68;78.25;;;2.20;99.90;;;;;;4865442;29;20579;-86
2022/03/25 03:37:44;;;;;;;218.02;77.60;;;2.20;99.90;;;;;;4866110;29;20045;-86
2022/03/25 03:40:12;;;;;;;275.30;79.18;;;2.20;99.90;;;;;;4881453;29;20041;-87
2022/03/25 03:42:39;;;;;;;236.88;76.28;;;2.10;99.90;;;;;;4881139;29;20071;-86
2022/03/25 03:45:07;;;;;;;207.50;76.20;;;2.10;99.90;;;;;;4897910;29;20049;-88
2022/03/25 03:47:33;;;;;;;218.82;75.82;;;2.00;99.90;;;;;;4866103;29;20051;-86
2022/03/25 03:49:58;;;;;;;263.08;76.43;;;2.00;99.90;;;;;;4866112;29;20063;-86
2022/03/25 03:52:25;;;;;;;224.35;78.07;;;2.00;99.90;;;;;;4866038;29;20056;-87
2022/03/25 03:54:51;;;;;;;212.63;75.05;;;2.10;99.90;;;;;;4865494;29;20068;-86
2022/03/25 03:57:16;;;;;;;222.50;74.32;;;1.90;99.90;;;;;;4881301;29;20055;-86
2022/03/25 03:59:42;;;;;;;212.85;72.70;;;1.90;99.90;;;;;;4897636;29;20052;-87
2022/03/25 04:02:08;;;;;;;201.02;70.88;;;1.90;99.90;;;;;;4881366;29;20055;-86
2022/03/25 04:04:34;;;;;;;207.15;73.63;;;1.80;99.90;;;;;;4881259;29;20052;-86
2022/03/25 04:07:00;;;;;;;185.75;69.88;;;1.80;99.90;;;;;;4865489;29;20136;-86
2022/03/25 04:09:26;;;;;;;229.20;72.97;;;1.70;99.90;;;;;;4881261;29;20406;-86
2022/03/25 04:11:53;;;;;;;198.40;69.35;;;1.70;99.90;;;;;;4881218;29;20466;-86
2022/03/25 04:14:19;;;;;;;153.75;67.25;;;1.60;99.90;;;;;;4881084;29;20092;-87
2022/03/25 04:16:45;;;;;;;187.05;69.90;;;1.60;99.90;;;;;;4865332;29;20833;-86
2022/03/25 04:19:11;;;;;;;160.23;60.78;;;1.60;99.90;;;;;;4880709;29;20051;-88
2022/03/25 04:21:36;;;;;;;161.02;56.45;;;1.60;99.90;;;;;;4865575;29;20357;-86
2022/03/25 04:24:02;;;;;;;259.38;55.08;;;1.60;99.90;;;;;;4880892;29;20396;-86
2022/03/25 04:26:28;;;;;;;226.63;55.50;;;1.70;99.90;;;;;;4865175;29;20060;-90
2022/03/25 04:28:54;;;;;;;218.48;51.28;;;1.60;99.90;;;;;;4864951;29;20099;-87
2022/03/25 04:31:19;;;;;;;176.98;51.00;;;1.60;99.90;;;;;;4865404;29;20060;-86
2022/03/25 04:33:45;;;;;;;208.02;51.40;;;1.50;99.90;;;;;;4864903;29;20064;-86
2022/03/25 04:36:11;;;;;;;509.00;59.45;;;1.40;99.90;;;;;;4880752;29;20045;-86
2022/03/25 04:38:37;;;;;;;230.13;51.92;;;1.30;99.90;;;;;;4897377;29;20060;-87
2022/03/25 04:41:03;;;;;;;281.45;50.50;;;1.30;99.90;;;;;;4897275;29;20407;-87
2022/03/25 04:43:29;;;;;;;395.42;52.92;;;1.20;99.90;;;;;;4883624;29;20044;-87
2022/03/25 04:45:54;;;;;;;684.67;65.53;;;1.20;99.90;;;;;;4886728;29;20067;-87
2022/03/25 04:48:20;;;;;;;428.30;55.03;;;1.20;99.90;;;;;;4887084;29;20104;-86
2022/03/25 04:50:46;;;;;;;595.60;63.47;;;1.10;99.90;;;;;;4903798;29;20044;-87
2022/03/25 04:53:12;;;;;;;472.67;59.15;;;1.10;99.90;;;;;;4903595;29;20055;-86
2022/03/25 04:55:37;;;;;;;324.25;54.30;;;1.10;99.90;;;;;;4886726;29;20444;-86
2022/03/25 04:58:03;;;;;;;305.10;52.80;;;1.00;99.90;;;;;;4886931;29;20131;-86
2022/03/25 05:00:29;;;;;;;197.10;50.75;;;1.00;99.90;;;;;;4870363;29;20085;-87
2022/03/25 05:02:55;;;;;;;162.73;49.30;;;0.90;99.90;;;;;;4886723;29;20055;-86
2022/03/25 05:05:21;;;;;;;171.80;49.08;;;0.80;99.90;;;;;;4887018;29;20056;-86
2022/03/25 05:07:47;;;;;;;134.90;48.28;;;0.70;99.90;;;;;;4886525;29;20061;-87
2022/03/25 05:10:14;;;;;;;136.93;49.45;;;0.70;99.90;;;;;;4886828;29;20124;-86
2022/03/25 05:12:41;;;;;;;164.93;51.80;;;0.70;99.90;;;;;;4886655;29;20116;-86
2022/03/25 05:15:07;;;;;;;134.10;47.83;;;0.60;99.90;;;;;;4886728;29;20135;-86
2022/03/25 05:17:32;;;;;;;130.45;49.20;;;0.60;99.90;;;;;;4870776;29;20115;-87
2022/03/25 05:19:58;;;;;;;107.22;45.90;;;0.50;99.90;;;;;;4903210;29;20399;-86
2022/03/25 05:22:25;;;;;;;135.25;48.17;;;0.50;99.90;;;;;;4886530;29;20080;-86
2022/03/25 05:24:51;;;;;;;122.53;49.47;;;0.50;99.90;;;;;;4886854;29;20096;-86
2022/03/25 05:27:17;;;;;;;125.38;49.13;;;0.50;99.90;;;;;;4886429;29;20044;-86
2022/03/25 05:29:42;;;;;;;122.25;50.00;;;0.60;99.90;;;;;;4886676;29;20143;-86
2022/03/25 05:32:09;;;;;;;143.15;51.45;;;0.50;99.90;;;;;;4870650;29;20048;-86
2022/03/25 05:34:36;;;;;;;140.00;52.80;;;0.50;99.90;;;;;;4870373;29;20099;-86
2022/03/25 05:37:01;;;;;;;112.50;49.70;;;0.50;99.90;;;;;;4899305;29;20557;-88
2022/03/25 05:39:27;;;;;;;158.38;52.90;;;0.50;99.90;;;;;;4889612;29;20052;-87
2022/03/25 05:41:53;;;;;;;166.23;52.72;;;0.60;99.90;;;;;;4905483;29;20044;-86
2022/03/25 05:44:19;;;;;;;138.63;49.92;;;0.60;99.90;;;;;;4889454;29;20491;-87
2022/03/25 05:46:44;;;;;;;180.85;53.33;;;0.60;99.90;;;;;;4922029;29;20127;-88
2022/03/25 05:49:10;;;;;;;176.93;53.88;;;0.70;99.90;;;;;;4905077;29;20519;-86
2022/03/25 05:51:36;;;;;;;147.73;49.65;;;0.80;99.90;;;;;;4905308;29;20048;-87
2022/03/25 05:54:01;;;;;;;152.00;49.70;;;0.80;99.90;;;;;;4889377;29;20482;-87
2022/03/25 05:56:27;;;;;;;110.45;45.65;;;0.80;99.90;;;;;;4886167;29;20056;-87
2022/03/25 05:58:53;;;;;;;123.93;48.28;;;0.90;99.90;;;;;;4886359;29;20059;-87
2022/03/25 06:01:19;;;;;;;127.03;48.20;;;1.00;99.90;;;;;;4902258;29;20047;-87
2022/03/25 06:03:44;;;;;;;122.88;48.67;;;1.00;99.90;;;;;;4886097;29;20157;-86
2022/03/25 06:06:10;;;;;;;119.55;50.42;;;1.10;99.90;;;;;;4902412;29;20127;-87
2022/03/25 06:08:36;;;;;;;139.15;50.05;;;1.20;99.90;;;;;;4886310;29;20147;-87
2022/03/25 06:11:02;;;;;;;117.20;46.75;;;1.30;99.90;;;;;;4886694;29;20515;-87
2022/03/25 06:13:28;;;;;;;142.00;51.53;;;1.30;99.90;;;;;;4902000;29;20406;-87
2022/03/25 06:15:55;;;;;;;114.45;49.03;;;1.40;99.90;;;;;;4901742;29;20052;-88
2022/03/25 06:18:21;;;;;;;132.20;50.50;;;1.50;99.90;;;;;;4901511;29;20060;-87
2022/03/25 06:20:47;;;;;;;120.00;49.38;;;1.60;99.90;;;;;;4901781;29;20088;-87
2022/03/25 06:23:14;;;;;;;135.88;51.15;;;1.60;99.90;;;;;;4885934;29;20084;-87
2022/03/25 06:25:41;;;;;;;128.98;51.10;;;1.70;99.90;;;;;;4886287;29;20048;-88
2022/03/25 06:28:07;;;;;;;111.90;49.13;;;1.80;99.90;;;;;;4886147;29;20122;-87
2022/03/25 06:30:35;;;;;;;112.25;48.22;;;1.90;99.90;;;;;;4901585;29;20044;-87
2022/03/25 06:33:03;;;;;;;115.72;51.42;;;2.00;99.90;;;;;;4918132;29;20135;-89
2022/03/25 06:35:29;;;;;;;100.90;47.90;;;2.10;99.90;;;;;;4901663;29;20044;-87
2022/03/25 06:37:56;;;;;;;116.97;49.50;;;2.20;99.90;;;;;;4918509;29;20056;-86
2022/03/25 06:40:22;;;;;;;112.70;49.03;;;2.30;99.90;;;;;;4918207;29;20040;-87
2022/03/25 06:42:49;;;;;;;105.93;49.70;;;2.30;99.90;;;;;;4901474;29;20048;-86
2022/03/25 06:45:16;;;;;;;102.65;49.03;;;2.40;99.90;;;;;;4901419;29;20055;-88
2022/03/25 06:47:43;;;;;;;95.22;48.17;;;2.50;99.90;;;;;;4901060;29;20051;-87
2022/03/25 06:50:10;;;;;;;107.93;49.60;;;2.60;99.90;;;;;;4901249;29;20098;-87
2022/03/25 06:52:37;;;;;;;88.10;46.47;;;2.70;99.90;;;;;;4917937;29;20131;-87
2022/03/25 06:55:03;;;;;;;106.40;50.15;;;2.80;99.90;;;;;;4901051;29;20167;-87
2022/03/25 06:57:29;;;;;;;100.10;47.83;;;2.90;99.90;;;;;;4900984;29;20134;-87
2022/03/25 06:59:56;;;;;;;95.45;47.90;;;3.00;99.90;;;;;;4885517;29;20058;-88
2022/03/25 07:02:22;;;;;;;97.97;49.05;;;3.10;99.90;;;;;;4901186;29;20051;-88
2022/03/25 07:04:48;;;;;;;92.45;46.08;;;3.20;99.90;;;;;;4917462;29;20056;-86
2022/03/25 07:07:17;;;;;;;87.60;47.28;;;3.30;99.90;;;;;;4901038;29;20060;-87
2022/03/25 07:09:43;;;;;;;91.20;47.00;;;3.40;99.90;;;;;;4901326;29;20052;-87
2022/03/25 07:12:10;;;;;;;79.90;45.13;;;3.50;99.90;;;;;;4901090;29;20467;-87
2022/03/25 07:14:35;;;;;;;85.03;46.70;;;3.60;99.90;;;;;;4900623;29;20429;-87
2022/03/25 07:17:01;;;;;;;82.05;44.85;;;3.70;99.90;;;;;;4900833;29;20052;-87
2022/03/25 07:19:27;;;;;;;78.45;43.60;;;3.90;99.90;;;;;;4900499;29;20048;-87
2022/03/25 07:21:53;;;;;;;79.53;44.22;;;4.00;99.90;;;;;;4917611;29;20099;-87
2022/03/25 07:24:20;;;;;;;83.45;44.85;;;4.10;99.90;;;;;;4884881;29;20091;-87
2022/03/25 07:26:46;;;;;;;83.55;44.47;;;4.20;99.90;;;;;;4917383;29;20055;-87
2022/03/25 07:29:11;;;;;;;81.90;44.85;;;4.60;99.90;;;;;;4885177;29;20127;-87
2022/03/25 07:31:38;;;;;;;75.80;44.92;;;4.40;99.90;;;;;;4900591;29;20044;-88
2022/03/25 07:34:04;;;;;;;70.50;41.85;;;4.50;99.90;;;;;;4899796;29;20060;-89
2022/03/25 07:36:29;;;;;;;81.38;46.38;;;4.60;99.90;;;;;;4900419;29;20060;-88
2022/03/25 07:38:55;;;;;;;70.70;41.10;;;4.80;99.90;;;;;;4917374;29;20048;-87
2022/03/25 07:41:21;;;;;;;75.38;44.58;;;4.90;99.90;;;;;;4900361;29;20598;-87
2022/03/25 07:43:47;;;;;;;73.85;43.40;;;5.10;99.90;;;;;;4900307;29;20052;-88
2022/03/25 07:46:13;;;;;;;77.40;44.63;;;5.30;99.90;;;;;;4884754;29;20123;-88
2022/03/25 07:48:39;;;;;;;74.57;45.28;;;5.40;99.90;;;;;;4884612;29;20060;-88
2022/03/25 07:51:07;;;;;;;79.82;45.90;;;5.60;99.90;;;;;;4884730;29;20074;-88
2022/03/25 07:53:33;;;;;;;77.47;43.13;;;5.80;99.90;;;;;;4883446;29;20574;-88
2022/03/25 07:55:59;;;;;;;76.00;45.42;;;6.20;99.90;;;;;;4900279;29;20079;-88
2022/03/25 07:58:25;;;;;;;78.00;45.35;;;6.10;99.90;;;;;;4900292;29;20044;-87
2022/03/25 08:00:51;;;;;;;72.70;43.75;;;6.30;99.90;;;;;;4899826;29;20527;-88
2022/03/25 08:03:18;;;;;;;75.50;44.83;;;6.50;99.90;;;;;;4899873;29;20048;-88
2022/03/25 08:05:50;;;;;;;77.55;45.10;;;6.60;99.90;;;;;;4899965;29;20056;-87
2022/03/25 08:08:19;;;;;;;79.25;45.95;;;6.80;99.90;;;;;;4916704;29;20092;-88
2022/03/25 08:10:46;;;;;;;71.32;42.55;;;7.10;99.90;;;;;;4916859;29;20095;-88
2022/03/25 08:13:12;;;;;;;73.63;43.03;;;7.20;99.90;;;;;;4899803;29;20048;-87
2022/03/25 08:15:38;;;;;;;68.57;39.63;;;7.40;99.90;;;;;;4899651;29;20139;-88
2022/03/25 08:18:10;;;;;;;64.38;39.53;;;7.50;99.90;;;;;;4898951;29;20180;-88
2022/03/25 08:20:39;;;;;;;67.80;38.90;;;7.70;99.90;;;;;;4916436;29;20051;-88
2022/03/25 08:29:01;;;;;;;66.93;37.28;;;8.20;99.90;;;;;;4899768;29;20142;-89
2022/03/25 08:31:28;;;;;;;63.88;37.40;;;8.40;99.90;;;;;;4900031;29;20450;-88
2022/03/25 08:33:54;;;;;;;58.38;36.78;;;8.50;99.90;;;;;;4884140;29;20041;-88
2022/03/25 08:36:20;;;;;;;57.35;36.63;;;8.70;99.90;;;;;;4899805;29;20454;-88
2022/03/25 08:38:46;;;;;;;65.40;38.35;;;8.80;99.90;;;;;;4899556;29;20048;-88
2022/03/25 08:41:12;;;;;;;66.00;35.38;;;9.00;99.90;;;;;;4883100;29;20060;-88
2022/03/25 08:43:39;;;;;;;63.80;36.78;;;9.20;99.90;;;;;;4899723;29;20354;-88
2022/03/25 08:46:07;;;;;;;59.00;34.85;;;9.40;99.90;;;;;;4899530;29;20056;-88
2022/03/25 08:48:32;;;;;;;52.63;32.38;;;9.60;99.90;;;;;;4899565;29;20456;-88
2022/03/25 08:50:58;;;;;;;53.28;32.85;;;9.80;99.90;;;;;;4899254;29;20188;-89
2022/03/25 08:53:24;;;;;;;56.97;33.45;;;10.00;99.90;;;;;;4884067;29;20151;-88
2022/03/25 08:55:49;;;;;;;53.67;33.13;;;10.20;99.90;;;;;;4899440;29;20056;-88
2022/03/25 08:58:15;;;;;;;52.40;32.38;;;10.40;99.90;;;;;;4899334;29;20516;-89
2022/03/25 09:00:41;;;;;;;51.40;31.58;;;10.50;99.90;;;;;;4916250;29;20051;-88
2022/03/25 09:03:06;;;;;;;54.08;32.15;;;10.80;99.90;;;;;;4883978;29;20483;-89
2022/03/25 09:05:32;;;;;;;47.58;30.52;;;11.40;99.90;;;;;;4916153;29;20139;-89
2022/03/25 09:07:58;;;;;;;53.40;31.65;;;12.60;99.90;;;;;;4883613;29;20056;-89
2022/03/25 09:10:24;;;;;;;54.05;30.27;;;13.90;99.90;;;;;;4899096;29;20059;-90
2022/03/25 09:12:49;;;;;;;49.65;29.45;;;15.30;99.90;;;;;;4899042;29;20403;-88
2022/03/25 09:15:16;;;;;;;47.40;30.95;;;16.30;99.90;;;;;;4883841;29;20052;-90
2022/03/25 09:17:48;;;;;;;47.80;29.30;;;17.10;99.70;;;;;;4899306;29;20056;-88
2022/03/25 09:20:14;;;;;;;44.60;29.90;;;17.80;88.70;;;;;;4899102;29;20055;-89
2022/03/25 09:22:41;;;;;;;50.88;30.30;;;18.30;87.80;;;;;;4899085;29;20581;-89
2022/03/25 09:25:08;;;;;;;43.08;29.42;;;18.90;80.70;;;;;;4915915;29;20059;-90
2022/03/25 09:27:34;;;;;;;44.63;30.15;;;19.30;73.80;;;;;;4899045;29;20047;-89
2022/03/25 09:30:01;;;;;;;42.33;29.63;;;19.80;69.70;;;;;;4900124;29;20410;-90
2022/03/25 09:32:26;;;;;;;43.72;30.10;;;20.20;64.20;;;;;;4902821;29;20044;-89
2022/03/25 09:35:08;;;;;;;43.47;29.77;;;20.50;61.70;;;;;;4902666;29;20059;-89
2022/03/25 09:37:40;;;;;;;45.72;30.30;;;20.60;60.10;;;;;;4902770;29;20435;-88
2022/03/25 09:40:09;;;;;;;43.55;28.23;;;20.80;57.10;;;;;;4886654;29;20403;-89
2022/03/25 09:42:36;;;;;;;45.00;30.85;;;20.90;56.30;;;;;;4902558;29;20044;-89
2022/03/25 09:45:03;;;;;;;43.60;30.48;;;21.00;55.10;;;;;;4902674;29;20047;-89
2022/03/25 09:47:32;;;;;;;44.63;31.17;;;21.10;54.30;;;;;;4886615;29;20088;-90
2022/03/25 09:50:02;;;;;;;43.35;29.60;;;21.40;53.40;;;;;;4919271;29;20048;-91
2022/03/25 09:52:31;;;;;;;41.35;29.50;;;21.60;52.90;;;;;;4886560;29;20075;-89
2022/03/25 09:54:58;;;;;;;43.63;29.67;;;21.90;52.10;;;;;;4902148;29;20144;-91
2022/03/25 09:57:27;;;;;;;41.05;30.02;;;22.00;52.10;;;;;;4886738;29;20139;-90
2022/03/25 09:59:53;;;;;;;45.60;30.30;;;22.10;51.70;;;;;;4902005;29;20048;-91
2022/03/25 10:02:19;;;;;;;45.85;30.02;;;22.30;50.50;;;;;;4919305;29;20123;-89
2022/03/25 10:04:46;;;;;;;41.17;30.45;;;22.40;50.10;;;;;;4902971;29;20502;-89
2022/03/25 10:07:26;;;;;;;39.53;28.88;;;22.30;49.30;;;;;;4885975;29;20084;-90
2022/03/25 10:10:27;;;;;;;42.60;30.08;;;22.30;48.80;;;;;;4902469;29;20516;-90
2022/03/25 10:13:04;;;;;;;40.65;30.45;;;22.20;48.90;;;;;;4829996;29;20110;-90
2022/03/25 10:15:32;;;;;;;41.72;29.08;;;22.00;49.20;;;;;;4845402;29;20117;-90
2022/03/25 10:18:08;;;;;;;41.50;28.95;;;22.00;49.50;;;;;;4860341;29;20457;-90
2022/03/25 10:20:39;;;;;;;42.90;29.15;;;22.10;48.60;;;;;;4829531;29;20091;-90
2022/03/25 10:23:19;;;;;;;46.83;30.05;;;22.50;48.70;;;;;;4860206;29;20054;-90
2022/03/25 10:25:51;;;;;;;42.38;30.52;;;23.20;47.60;;;;;;4845056;29;20065;-90
2022/03/25 10:28:36;;;;;;;49.50;30.05;;;23.70;46.40;;;;;;4860065;29;20552;-90
2022/03/25 10:31:06;;;;;;;44.60;29.88;;;24.30;44.30;;;;;;4860445;29;20572;-92
2022/03/25 10:33:35;;;;;;;43.43;29.20;;;24.70;44.00;;;;;;4844887;29;20076;-90
2022/03/25 10:36:07;;;;;;;39.17;29.08;;;25.00;43.40;;;;;;4829733;29;20109;-93
2022/03/25 10:38:47;;;;;;;43.78;29.13;;;25.10;43.00;;;;;;4860426;29;20084;-91
2022/03/25 10:41:20;;;;;;;43.92;29.58;;;25.40;41.90;;;;;;4859909;29;20049;-91
2022/03/25 10:43:52;;;;;;;42.60;30.15;;;25.80;42.20;;;;;;4829560;29;20129;-89
2022/03/25 10:46:33;;;;;;;43.05;28.20;;;26.00;41.30;;;;;;4860005;29;20507;-90
2022/03/25 10:48:59;;;;;;;46.33;29.13;;;26.20;40.90;;;;;;4853179;29;20056;-89
2022/03/25 10:51:25;;;;;;;40.72;28.00;;;26.30;40.80;;;;;;4901013;29;20138;-90
2022/03/25 10:53:59;;;;;;;40.50;28.48;;;26.50;40.30;;;;;;4901645;29;20052;-90
2022/03/25 10:56:26;;;;;;;37.60;26.40;;;26.60;39.50;;;;;;4901470;29;20052;-90
2022/03/25 10:58:56;;;;;;;43.13;26.73;;;26.40;39.30;;;;;;4901502;29;20131;-90
2022/03/25 11:01:22;;;;;;;41.13;26.65;;;26.40;39.00;;;;;;4885804;29;20040;-91
2022/03/25 11:03:50;;;;;;;46.42;26.85;;;26.60;39.80;;;;;;4901912;29;20044;-89
2022/03/25 11:06:18;;;;;;;38.83;27.23;;;26.80;39.10;;;;;;4903470;29;20099;-90
2022/03/25 11:08:47;;;;;;;44.00;26.77;;;27.00;39.10;;;;;;4901873;29;20451;-89
2022/03/25 11:11:17;;;;;;;40.00;25.55;;;27.20;38.90;;;;;;4885961;29;20139;-90
2022/03/25 11:13:47;;;;;;;44.33;26.30;;;27.60;37.80;;;;;;4918150;29;20055;-90
2022/03/25 11:16:15;;;;;;;34.72;24.75;;;27.80;37.60;;;;;;4885370;29;20044;-90
2022/03/25 11:18:43;;;;;;;39.85;26.08;;;28.00;37.80;;;;;;4900698;29;20098;-90
2022/03/25 11:21:09;;;;;;;37.30;25.38;;;28.00;37.10;;;;;;4885478;29;20055;-90
2022/03/25 11:23:47;;;;;;;42.88;26.73;;;27.90;36.70;;;;;;4885348;29;20056;-90
2022/03/25 11:26:17;;;;;;;38.22;25.55;;;27.90;36.30;;;;;;4900962;29;20096;-91
2022/03/25 11:28:45;;;;;;;31.02;24.00;;;27.90;36.20;;;;;;4900859;29;20375;-90
2022/03/25 11:31:11;;;;;;;37.20;25.23;;;28.00;36.10;;;;;;4885147;29;20060;-92
2022/03/25 11:34:09;;;;;;;36.72;24.63;;;28.00;36.00;;;;;;4900607;29;20048;-91
2022/03/25 11:36:43;;;;;;;35.00;23.95;;;28.20;36.40;;;;;;4843907;29;20607;-92
2022/03/25 11:39:24;;;;;;;36.28;25.20;;;28.30;36.00;;;;;;4843817;29;20061;-90
2022/03/25 11:41:53;;;;;;;40.83;25.00;;;28.20;35.90;;;;;;4843892;29;20144;-90
2022/03/25 11:44:25;;;;;;;42.90;25.15;;;28.20;36.20;;;;;;4844283;29;20461;-90
2022/03/25 11:47:03;;;;;;;34.63;25.42;;;28.30;35.30;;;;;;4859105;29;20168;-91
2022/03/25 11:49:30;;;;;;;37.45;26.10;;;28.40;36.20;;;;;;4843841;29;20058;-91
2022/03/25 11:52:16;;;;;;;39.20;25.02;;;28.50;35.60;;;;;;4859218;29;20042;-90
2022/03/25 11:54:43;;;;;;;36.03;24.15;;;28.70;35.40;;;;;;4843384;29;20489;-91
2022/03/25 11:57:34;;;;;;;38.08;24.80;;;28.70;35.40;;;;;;4843887;29;20045;-88
2022/03/25 12:00:02;;;;;;;36.10;24.95;;;29.00;35.00;;;;;;4843611;29;20074;-91
2022/03/25 12:02:31;;;;;;;38.25;25.58;;;29.00;34.50;;;;;;4843804;29;20109;-91
2022/03/25 12:05:01;;;;;;;40.67;26.42;;;29.10;35.50;;;;;;4843777;29;20061;-90
2022/03/25 12:07:28;;;;;;;41.05;24.00;;;29.30;35.00;;;;;;4828272;29;20062;-91
2022/03/25 12:09:53;;;;;;;36.05;25.30;;;29.60;34.10;;;;;;4859015;29;20053;-90
2022/03/25 12:12:39;;;;;;;37.40;24.77;;;29.70;34.10;;;;;;4844989;29;20072;-91
2022/03/25 12:15:09;;;;;;;36.63;22.80;;;29.90;33.90;;;;;;4884391;29;20048;-90
2022/03/25 12:17:35;;;;;;;36.33;23.88;;;30.00;33.20;;;;;;4884454;29;20040;-91
2022/03/25 12:20:01;;;;;;;38.78;24.20;;;30.00;33.40;;;;;;4900165;29;20108;-90
2022/03/25 12:22:34;;;;;;;34.83;23.55;;;30.00;33.60;;;;;;4884517;29;20145;-91
2022/03/25 12:25:14;;;;;;;36.58;24.00;;;30.00;33.40;;;;;;4900068;29;20078;-92
2022/03/25 12:27:41;;;;;;;37.30;23.02;;;29.90;33.80;;;;;;4884242;29;20044;-91
2022/03/25 12:30:07;;;;;;;40.05;23.33;;;30.00;33.60;;;;;;4899707;29;20067;-91
2022/03/25 12:32:36;;;;;;;33.95;23.52;;;30.00;32.90;;;;;;4884736;29;20048;-90
2022/03/25 12:35:01;;;;;;;35.92;22.83;;;30.10;32.90;;;;;;4884506;29;20040;-91
2022/03/25 12:37:39;;;;;;;35.30;22.48;;;30.20;32.90;;;;;;4884552;29;20095;-91